Search METAR Data

METAR Data for ENAL:

ENAL 241420Z 12004KT 9999 VCSH FEW010 SCT012 BKN063 04/01 Q1009